Terminal Aerodrome Forecast
Issued by NWS Wilmington, OH

Current Version | Previous Version | Graphics & Text | Print | Product List | Glossary On
Versions: 1 2 3 4 5 6 7 8 9 10 11 12 13 14 15 16 17 18 19 20 21
000
FTUS41 KILN 191700 RRA
TAFDAY
TAF
KDAY 191747Z 1918/2018 20021G30KT P6SM SCT035 BKN100
     FM192300 26018G28KT P6SM VCSH OVC025
     FM200300 25015KT P6SM OVC025
     FM200900 25011KT P6SM OVC035
     FM201400 25013G22KT P6SM OVC035=

USA.gov is the U.S. government's official web portal to all federal, state and local government web resources and services.